Time;durP1;ratioP1;P1;durP2;ratioP2;P2;SDS_P1;SDS_P2;PMS_P1;PMS_P2;Temp;Humidity;BMP_temperature;BMP_pressure;BME280_temperature;BME280_humidity;BME280_pressure;Samples;Min_cycle;Max_cycle;Signal;HPM_P1;HPM_P2
2023/05/14 00:00:14;;;;;;;13.90;13.20;;;15.40;40.50;;;;;;5069994;28;20189;-70
2023/05/14 00:02:40;;;;;;;14.73;13.93;;;15.40;40.30;;;;;;5073305;28;20553;-71
2023/05/14 00:05:06;;;;;;;13.50;12.80;;;15.40;40.50;;;;;;5072334;28;20457;-71
2023/05/14 00:07:32;;;;;;;14.10;13.40;;;15.40;40.70;;;;;;5071247;28;20182;-71
2023/05/14 00:09:58;;;;;;;15.30;14.40;;;15.40;40.50;;;;;;5072595;28;21022;-71
2023/05/14 00:12:25;;;;;;;14.47;13.67;;;15.40;40.70;;;;;;5054979;28;20179;-71
2023/05/14 00:14:51;;;;;;;13.77;13.07;;;15.50;40.90;;;;;;5073259;28;20932;-71
2023/05/14 00:17:16;;;;;;;13.57;12.77;;;15.40;41.00;;;;;;5072793;28;20853;-71
2023/05/14 00:19:42;;;;;;;14.03;13.33;;;15.40;41.00;;;;;;5074655;28;20425;-71
2023/05/14 00:22:08;;;;;;;14.60;13.90;;;15.40;40.70;;;;;;5073299;28;20578;-72
2023/05/14 00:24:34;;;;;;;14.73;13.90;;;15.40;40.70;;;;;;5071448;28;20203;-71
2023/05/14 00:27:00;;;;;;;15.43;14.63;;;15.40;40.80;;;;;;5073287;28;20459;-71
2023/05/14 00:29:25;;;;;;;14.53;13.70;;;15.20;41.20;;;;;;5074736;28;20418;-71
2023/05/14 00:31:51;;;;;;;15.03;14.23;;;15.20;41.70;;;;;;5072032;28;20190;-71
2023/05/14 00:34:16;;;;;;;14.17;13.47;;;15.20;41.10;;;;;;5071183;28;20203;-72
2023/05/14 00:36:42;;;;;;;14.60;13.70;;;15.30;41.20;;;;;;5053028;28;20201;-71
2023/05/14 00:39:08;;;;;;;15.10;14.40;;;15.30;40.80;;;;;;5070616;28;20183;-71
2023/05/14 00:41:33;;;;;;;15.50;14.50;;;15.30;40.50;;;;;;5071880;28;20240;-71
2023/05/14 00:43:59;;;;;;;14.90;14.10;;;15.30;40.50;;;;;;5069403;28;20257;-71
2023/05/14 00:46:25;;;;;;;13.87;13.17;;;15.30;41.00;;;;;;5070303;28;20252;-71
2023/05/14 00:48:50;;;;;;;13.87;13.17;;;15.30;41.30;;;;;;5069969;28;20246;-72
2023/05/14 00:51:17;;;;;;;14.40;13.60;;;15.30;41.00;;;;;;5049722;28;20180;-71
2023/05/14 00:53:44;;;;;;;15.90;14.77;;;15.30;40.70;;;;;;5069965;28;20541;-70
2023/05/14 00:56:09;;;;;;;14.77;13.97;;;15.30;40.80;;;;;;5071532;28;20414;-71
2023/05/14 00:58:35;;;;;;;15.10;14.30;;;15.20;40.50;;;;;;5070376;28;20460;-71
2023/05/14 01:01:01;;;;;;;15.23;14.43;;;15.30;40.80;;;;;;5070533;28;20178;-70
2023/05/14 01:03:29;;;;;;;15.87;14.97;;;15.30;40.70;;;;;;5071751;28;20195;-71
2023/05/14 01:05:55;;;;;;;15.47;14.67;;;15.30;40.80;;;;;;5071994;28;20552;-71
2023/05/14 01:08:20;;;;;;;15.50;14.60;;;15.30;40.80;;;;;;5070886;28;20501;-72
2023/05/14 01:11:09;;;;;;;16.93;16.07;;;15.30;40.70;;;;;;5069937;28;20168;-70
2023/05/14 01:13:51;;;;;;;15.50;14.60;;;15.20;40.70;;;;;;5050418;28;20195;-70
2023/05/14 01:16:18;;;;;;;16.87;15.97;;;15.00;41.90;;;;;;5069650;28;20421;-71
2023/05/14 01:18:47;;;;;;;16.10;15.30;;;15.00;41.80;;;;;;5068519;28;20753;-71
2023/05/14 01:21:42;;;;;;;16.00;15.20;;;15.00;41.40;;;;;;5068442;28;20417;-70
2023/05/14 01:24:07;;;;;;;14.73;13.93;;;15.00;41.40;;;;;;5047302;28;21021;-71
2023/05/14 01:26:34;;;;;;;15.63;14.83;;;14.90;41.40;;;;;;5067714;28;20457;-71
2023/05/14 01:29:09;;;;;;;16.00;15.00;;;15.00;41.00;;;;;;5069042;28;20262;-72
2023/05/14 01:31:37;;;;;;;16.13;15.33;;;15.00;40.40;;;;;;5068248;28;20445;-71
2023/05/14 01:34:05;;;;;;;15.70;14.80;;;15.10;40.10;;;;;;5066716;28;20484;-70
2023/05/14 01:36:31;;;;;;;14.70;13.90;;;15.10;40.00;;;;;;5064854;28;20449;-71
2023/05/14 01:38:59;;;;;;;14.70;14.00;;;15.10;39.70;;;;;;5066651;28;20417;-71
2023/05/14 01:41:25;;;;;;;16.20;15.20;;;15.10;39.70;;;;;;5066951;28;20417;-71
2023/05/14 01:43:51;;;;;;;16.87;15.97;;;15.00;39.90;;;;;;5046926;28;20445;-71
2023/05/14 01:46:18;;;;;;;15.60;14.80;;;15.00;39.80;;;;;;5065047;28;20461;-71
2023/05/14 01:48:44;;;;;;;16.27;15.37;;;14.90;39.50;;;;;;5064450;28;20164;-71
2023/05/14 01:51:09;;;;;;;14.90;14.13;;;14.90;40.00;;;;;;5048502;28;20428;-70
2023/05/14 01:53:35;;;;;;;16.37;15.57;;;14.90;39.90;;;;;;5048644;28;20195;-71
2023/05/14 01:56:01;;;;;;;16.03;15.23;;;15.00;39.80;;;;;;5065873;28;20642;-70
2023/05/14 01:58:26;;;;;;;15.53;14.67;;;15.00;39.70;;;;;;5064744;28;20198;-71
2023/05/14 02:00:52;;;;;;;16.53;15.53;;;15.00;39.90;;;;;;5066524;28;20236;-71
2023/05/14 02:03:17;;;;;;;16.23;15.43;;;14.90;39.80;;;;;;5066833;28;20207;-72
2023/05/14 02:05:43;;;;;;;16.47;15.67;;;14.90;40.20;;;;;;5065230;28;20203;-70
2023/05/14 02:08:08;;;;;;;15.90;14.90;;;14.90;40.20;;;;;;5065081;28;20228;-70
2023/05/14 02:10:34;;;;;;;15.60;14.90;;;14.80;40.80;;;;;;5067572;28;20180;-71
2023/05/14 02:13:00;;;;;;;16.43;15.53;;;14.80;40.50;;;;;;5066805;28;20187;-71
2023/05/14 02:15:25;;;;;;;15.80;14.90;;;14.80;40.10;;;;;;5054463;28;20171;-71
2023/05/14 02:17:51;;;;;;;16.37;15.47;;;14.80;40.10;;;;;;5072420;28;20413;-71
2023/05/14 02:20:16;;;;;;;15.60;14.80;;;14.80;39.90;;;;;;5071217;28;20182;-70
2023/05/14 02:22:44;;;;;;;16.83;15.73;;;14.90;39.90;;;;;;5072344;28;20179;-70
2023/05/14 02:25:10;;;;;;;15.80;15.00;;;14.90;40.10;;;;;;5070559;28;20199;-71
2023/05/14 02:27:35;;;;;;;15.10;14.40;;;14.80;39.60;;;;;;5052950;28;20420;-71
2023/05/14 02:30:01;;;;;;;16.57;15.67;;;14.80;39.70;;;;;;5070810;28;20565;-72
2023/05/14 02:32:29;;;;;;;16.30;15.40;;;14.80;39.80;;;;;;5070231;28;20163;-71
2023/05/14 02:34:55;;;;;;;16.03;15.03;;;14.80;39.80;;;;;;5069434;28;20420;-71
2023/05/14 02:37:23;;;;;;;15.13;14.43;;;14.80;39.40;;;;;;5067013;28;20784;-71
2023/05/14 02:39:48;;;;;;;15.90;15.00;;;14.70;39.00;;;;;;5064682;28;20179;-71
2023/05/14 02:42:14;;;;;;;15.57;14.67;;;14.70;39.30;;;;;;5065543;28;20480;-71
2023/05/14 02:44:39;;;;;;;15.67;14.77;;;14.70;39.70;;;;;;5064706;28;20191;-70
2023/05/14 02:47:05;;;;;;;16.80;15.70;;;14.70;39.60;;;;;;5063571;28;20181;-72
2023/05/14 02:49:31;;;;;;;16.07;15.27;;;14.70;40.10;;;;;;5064085;28;20660;-71
2023/05/14 02:51:57;;;;;;;15.20;14.30;;;14.70;40.00;;;;;;5065310;28;20206;-70
2023/05/14 02:54:22;;;;;;;16.37;15.27;;;14.70;39.80;;;;;;5063708;28;20282;-71
2023/05/14 02:56:48;;;;;;;16.77;15.77;;;14.70;40.00;;;;;;5066343;28;20476;-70
2023/05/14 02:59:13;;;;;;;15.87;15.07;;;14.70;39.70;;;;;;5065341;28;20175;-70
2023/05/14 03:01:39;;;;;;;15.53;14.43;;;14.80;39.50;;;;;;5066714;28;20199;-71
2023/05/14 03:04:04;;;;;;;16.87;15.93;;;14.70;39.60;;;;;;5061785;28;20201;-72
2023/05/14 03:06:30;;;;;;;15.13;14.33;;;14.70;39.60;;;;;;5046700;28;20199;-71
2023/05/14 03:08:56;;;;;;;15.93;15.03;;;14.80;39.80;;;;;;5064413;28;20740;-70
2023/05/14 03:11:21;;;;;;;15.17;14.20;;;14.70;39.60;;;;;;5064436;28;21346;-71
2023/05/14 03:13:47;;;;;;;15.70;14.80;;;14.80;39.50;;;;;;5064143;28;20200;-70
2023/05/14 03:16:12;;;;;;;16.50;15.70;;;14.80;39.40;;;;;;5064660;28;20175;-71
2023/05/14 03:18:38;;;;;;;16.00;15.10;;;14.80;39.50;;;;;;5063371;28;20167;-71
2023/05/14 03:21:04;;;;;;;15.47;14.67;;;14.80;39.70;;;;;;5065990;28;20541;-71
2023/05/14 03:23:30;;;;;;;16.87;15.83;;;14.70;38.80;;;;;;5069549;28;20566;-72
2023/05/14 03:25:56;;;;;;;15.20;14.40;;;14.50;40.60;;;;;;5069137;28;20199;-71
2023/05/14 03:28:22;;;;;;;16.10;15.10;;;14.50;40.70;;;;;;5067890;28;20488;-71
2023/05/14 03:30:47;;;;;;;17.60;16.50;;;14.50;40.60;;;;;;5067639;28;20175;-71
2023/05/14 03:33:13;;;;;;;15.43;14.63;;;14.50;40.20;;;;;;5047221;28;20317;-70
2023/05/14 03:35:38;;;;;;;17.43;16.37;;;14.50;39.90;;;;;;5068430;28;20183;-71
2023/05/14 03:38:04;;;;;;;17.17;16.17;;;14.50;40.10;;;;;;5068512;28;20261;-71
2023/05/14 03:40:30;;;;;;;15.83;14.97;;;14.50;40.00;;;;;;5067611;28;20191;-71
2023/05/14 03:42:55;;;;;;;15.60;14.80;;;14.40;40.00;;;;;;5067090;28;20425;-72
2023/05/14 03:45:21;;;;;;;15.23;14.27;;;14.40;40.00;;;;;;5065743;28;20776;-71
2023/05/14 03:47:46;;;;;;;16.63;15.63;;;14.40;40.40;;;;;;5067152;28;20178;-71
2023/05/14 03:50:12;;;;;;;14.90;14.10;;;14.40;40.50;;;;;;5065600;28;20184;-71
2023/05/14 03:52:38;;;;;;;15.10;14.20;;;14.40;40.20;;;;;;5068051;28;20536;-71
2023/05/14 03:55:04;;;;;;;16.17;15.27;;;14.40;40.20;;;;;;5050366;28;20194;-71
2023/05/14 03:57:29;;;;;;;16.60;15.70;;;14.30;40.20;;;;;;5067391;28;20258;-71
2023/05/14 03:59:55;;;;;;;16.07;15.07;;;14.30;40.40;;;;;;5067815;28;20414;-71
2023/05/14 04:02:21;;;;;;;16.80;15.90;;;14.30;40.40;;;;;;5068951;28;20255;-71
2023/05/14 04:04:46;;;;;;;15.87;14.97;;;14.30;40.10;;;;;;5065841;28;20195;-71
2023/05/14 04:07:12;;;;;;;14.77;13.97;;;14.20;39.60;;;;;;5067039;28;20171;-71
2023/05/14 04:09:37;;;;;;;16.43;15.23;;;14.00;41.10;;;;;;5067993;28;20176;-70
2023/05/14 04:12:03;;;;;;;16.33;15.43;;;14.00;42.00;;;;;;5067549;28;20206;-70
2023/05/14 04:14:29;;;;;;;14.83;14.03;;;14.10;41.60;;;;;;5069487;28;20715;-71
2023/05/14 04:16:54;;;;;;;15.77;14.97;;;14.10;40.40;;;;;;5069911;28;20500;-71
2023/05/14 04:19:20;;;;;;;15.60;14.77;;;14.20;40.40;;;;;;5070249;28;20176;-70
2023/05/14 04:21:45;;;;;;;15.13;14.40;;;14.30;40.60;;;;;;5070064;28;20580;-71
2023/05/14 04:24:11;;;;;;;15.30;14.50;;;14.30;40.30;;;;;;5052682;28;20199;-70
2023/05/14 04:26:36;;;;;;;14.80;13.90;;;14.30;40.30;;;;;;5070647;28;20215;-72
2023/05/14 04:29:02;;;;;;;15.40;14.70;;;14.30;40.30;;;;;;5071867;28;20182;-71
2023/05/14 04:31:28;;;;;;;16.03;15.13;;;14.40;39.70;;;;;;5071315;28;20183;-70
2023/05/14 04:33:54;;;;;;;15.67;14.80;;;14.40;39.50;;;;;;5070692;28;20191;-71
2023/05/14 04:36:20;;;;;;;15.20;14.40;;;14.40;39.30;;;;;;5073943;28;20416;-70
2023/05/14 04:38:45;;;;;;;15.80;14.90;;;14.30;39.50;;;;;;5074751;28;20205;-71
2023/05/14 04:41:11;;;;;;;15.63;14.73;;;14.30;39.10;;;;;;5052799;28;20182;-71
2023/05/14 04:43:36;;;;;;;15.87;15.07;;;14.30;39.00;;;;;;5072611;28;20183;-71
2023/05/14 04:46:02;;;;;;;15.37;14.63;;;14.30;39.60;;;;;;5073955;28;20213;-70
2023/05/14 04:48:27;;;;;;;15.73;14.83;;;14.20;39.90;;;;;;5075407;28;20217;-71
2023/05/14 04:50:53;;;;;;;15.30;14.30;;;14.30;40.00;;;;;;5075136;28;20218;-71
2023/05/14 04:53:18;;;;;;;15.57;14.67;;;14.30;40.20;;;;;;5057253;28;20194;-72
2023/05/14 04:55:44;;;;;;;14.83;14.03;;;14.30;40.20;;;;;;5074375;28;20217;-71
2023/05/14 04:58:10;;;;;;;15.27;14.30;;;14.20;40.20;;;;;;5075734;28;20184;-71
2023/05/14 05:00:35;;;;;;;16.00;15.20;;;14.10;41.40;;;;;;5074316;28;20187;-70
2023/05/14 05:03:01;;;;;;;15.70;14.80;;;14.20;41.50;;;;;;5075903;28;20267;-71
2023/05/14 05:05:27;;;;;;;14.60;13.70;;;14.10;40.00;;;;;;5075968;28;20457;-71
2023/05/14 05:07:52;;;;;;;15.63;14.83;;;14.00;40.80;;;;;;5056223;28;20672;-71
2023/05/14 05:10:18;;;;;;;15.47;14.70;;;14.00;40.60;;;;;;5056606;28;20333;-70
2023/05/14 05:12:43;;;;;;;16.00;15.20;;;13.80;40.80;;;;;;5075072;28;20175;-72
2023/05/14 05:15:09;;;;;;;14.90;14.10;;;13.70;42.50;;;;;;5074715;28;20262;-71
2023/05/14 05:17:35;;;;;;;15.27;14.00;;;13.80;41.50;;;;;;5075697;28;20179;-71
2023/05/14 05:20:01;;;;;;;14.80;14.07;;;13.80;41.30;;;;;;5057614;28;20206;-71
2023/05/14 05:22:26;;;;;;;14.13;13.13;;;13.90;41.40;;;;;;5075229;28;20915;-71
2023/05/14 05:24:52;;;;;;;15.87;15.00;;;13.90;41.50;;;;;;5073694;28;20242;-70
2023/05/14 05:27:19;;;;;;;16.53;15.50;;;14.00;41.40;;;;;;5075789;28;20217;-71
2023/05/14 05:29:45;;;;;;;14.67;13.93;;;14.10;41.20;;;;;;5074880;28;20201;-71
2023/05/14 05:32:11;;;;;;;16.40;15.40;;;13.90;41.50;;;;;;5075147;28;20410;-71
2023/05/14 05:34:36;;;;;;;15.23;14.40;;;14.00;41.50;;;;;;5075985;28;20198;-71
2023/05/14 05:37:02;;;;;;;15.00;14.20;;;14.00;40.30;;;;;;5074933;28;20179;-71
2023/05/14 05:39:33;;;;;;;15.60;14.80;;;14.00;41.20;;;;;;5074440;28;20172;-71
2023/05/14 05:42:00;;;;;;;14.83;14.03;;;14.10;41.00;;;;;;5076329;28;20985;-70
2023/05/14 05:44:25;;;;;;;15.20;14.40;;;14.20;40.80;;;;;;5057244;28;20512;-71
2023/05/14 05:46:51;;;;;;;15.33;14.53;;;14.30;40.40;;;;;;5075039;28;20552;-70
2023/05/14 05:49:16;;;;;;;15.47;14.27;;;14.30;39.80;;;;;;5074797;28;20224;-71
2023/05/14 05:51:42;;;;;;;16.17;15.27;;;14.30;39.10;;;;;;5073790;28;20194;-70
2023/05/14 05:54:07;;;;;;;15.00;14.00;;;14.20;39.70;;;;;;5074801;28;20198;-70
2023/05/14 05:56:33;;;;;;;14.87;14.07;;;14.20;39.80;;;;;;5074514;28;20289;-71
2023/05/14 05:58:59;;;;;;;15.77;14.87;;;14.20;39.70;;;;;;5073739;28;20179;-72
2023/05/14 06:01:25;;;;;;;16.00;14.80;;;14.10;39.70;;;;;;5074177;28;20183;-70
2023/05/14 06:03:51;;;;;;;15.23;14.43;;;14.10;39.90;;;;;;5073767;28;20239;-71
2023/05/14 06:06:17;;;;;;;15.00;14.10;;;14.20;39.80;;;;;;5072824;28;20453;-71
2023/05/14 06:08:42;;;;;;;16.37;15.40;;;14.20;39.80;;;;;;5073543;28;20467;-70
2023/05/14 06:11:08;;;;;;;15.13;14.23;;;14.20;39.80;;;;;;5072410;28;20179;-72
2023/05/14 06:13:33;;;;;;;15.57;14.67;;;14.10;39.80;;;;;;5072670;28;20541;-71
2023/05/14 06:15:59;;;;;;;15.83;14.90;;;14.20;40.00;;;;;;5073536;28;20182;-71
2023/05/14 06:18:24;;;;;;;15.17;14.37;;;14.10;40.00;;;;;;5070238;28;20195;-70
2023/05/14 06:20:50;;;;;;;14.90;14.03;;;14.00;40.10;;;;;;5051230;28;20287;-70
2023/05/14 06:23:16;;;;;;;15.17;14.27;;;14.00;40.70;;;;;;5051762;28;20195;-71
2023/05/14 06:25:41;;;;;;;14.80;13.90;;;14.00;40.80;;;;;;5060656;28;20206;-70
2023/05/14 06:28:07;;;;;;;15.13;14.37;;;14.00;40.20;;;;;;5074311;28;20181;-70
2023/05/14 06:30:32;;;;;;;15.93;14.93;;;14.10;40.70;;;;;;5073252;28;20183;-70
2023/05/14 06:32:58;;;;;;;16.10;15.00;;;14.10;40.60;;;;;;5072341;28;20260;-71
2023/05/14 06:35:23;;;;;;;16.03;15.13;;;14.20;40.50;;;;;;5073758;28;20183;-71
2023/05/14 06:37:49;;;;;;;14.83;14.03;;;14.10;40.10;;;;;;5074516;28;20199;-71
2023/05/14 06:40:15;;;;;;;15.80;15.00;;;14.10;40.10;;;;;;5073295;28;20171;-70
2023/05/14 06:42:41;;;;;;;16.07;15.13;;;14.10;41.10;;;;;;5072507;28;20182;-71
2023/05/14 06:45:07;;;;;;;15.70;14.80;;;14.10;40.70;;;;;;5074431;28;20207;-70
2023/05/14 06:47:32;;;;;;;15.50;14.60;;;14.20;40.10;;;;;;5073077;28;20414;-70
2023/05/14 06:49:59;;;;;;;16.03;14.73;;;14.30;39.60;;;;;;5073309;28;20419;-70
2023/05/14 06:52:25;;;;;;;15.47;14.63;;;14.20;39.20;;;;;;5072496;28;20575;-71
2023/05/14 06:54:51;;;;;;;16.43;15.50;;;14.00;40.20;;;;;;5072822;28;20437;-70
2023/05/14 06:57:16;;;;;;;15.60;14.50;;;14.00;41.20;;;;;;5073598;28;20179;-70
2023/05/14 06:59:42;;;;;;;16.63;15.63;;;14.10;40.90;;;;;;5073281;28;20358;-70
2023/05/14 07:02:07;;;;;;;14.60;13.70;;;14.30;40.50;;;;;;5073221;28;20191;-70
2023/05/14 07:04:33;;;;;;;14.87;13.97;;;14.30;40.20;;;;;;5073781;28;20278;-70
2023/05/14 07:06:58;;;;;;;14.70;13.80;;;14.30;40.60;;;;;;5056700;28;20207;-70
2023/05/14 07:09:24;;;;;;;15.00;14.20;;;14.30;40.10;;;;;;5075278;28;20172;-70
2023/05/14 07:11:49;;;;;;;15.40;14.50;;;14.20;41.10;;;;;;5071104;28;20183;-70
2023/05/14 07:14:15;;;;;;;15.30;14.33;;;14.20;41.20;;;;;;5072946;28;20276;-71
2023/05/14 07:16:41;;;;;;;16.37;15.37;;;14.20;40.90;;;;;;5073471;28;20266;-71
2023/05/14 07:19:07;;;;;;;16.20;15.17;;;14.30;40.50;;;;;;5073677;28;20175;-70
2023/05/14 07:21:34;;;;;;;15.77;14.77;;;14.30;41.10;;;;;;5072947;28;20467;-71
2023/05/14 07:24:00;;;;;;;14.20;13.40;;;14.30;40.70;;;;;;5073415;28;20476;-72
2023/05/14 07:26:25;;;;;;;16.17;15.17;;;14.40;40.90;;;;;;5075690;28;20465;-72
2023/05/14 07:28:51;;;;;;;15.73;14.83;;;14.50;40.10;;;;;;5075627;28;20167;-72
2023/05/14 07:31:16;;;;;;;15.97;14.87;;;14.50;40.00;;;;;;5074865;28;20179;-72
2023/05/14 07:33:42;;;;;;;17.17;16.07;;;14.20;40.70;;;;;;5074916;28;20251;-71
2023/05/14 07:36:07;;;;;;;16.47;15.53;;;14.30;40.80;;;;;;5071934;28;20538;-71
2023/05/14 07:38:33;;;;;;;15.50;14.60;;;14.30;40.60;;;;;;5072555;28;20175;-71
2023/05/14 07:40:59;;;;;;;16.80;15.80;;;14.40;40.90;;;;;;5054441;28;20720;-70
2023/05/14 07:43:24;;;;;;;15.80;14.80;;;14.40;40.90;;;;;;5069640;28;20199;-71
2023/05/14 07:45:50;;;;;;;15.10;14.20;;;14.40;40.90;;;;;;5073749;28;20272;-70
2023/05/14 07:48:16;;;;;;;15.60;14.70;;;14.40;40.80;;;;;;5074052;28;20175;-71
2023/05/14 07:50:41;;;;;;;15.03;14.13;;;14.50;40.10;;;;;;5073573;28;20172;-72
2023/05/14 07:53:07;;;;;;;15.33;14.43;;;14.50;40.00;;;;;;5070310;28;20191;-71
2023/05/14 07:55:32;;;;;;;16.00;15.00;;;14.60;39.20;;;;;;5075137;28;20553;-76
2023/05/14 07:57:58;;;;;;;15.73;14.33;;;14.60;39.40;;;;;;5078458;28;20175;-71
2023/05/14 08:00:23;;;;;;;16.17;15.17;;;14.60;39.30;;;;;;5078397;28;20225;-71
2023/05/14 08:02:50;;;;;;;16.10;15.10;;;14.60;39.10;;;;;;5075502;28;20252;-72
2023/05/14 08:05:16;;;;;;;15.60;14.60;;;14.60;39.00;;;;;;5072547;28;20195;-70
2023/05/14 08:07:42;;;;;;;15.40;14.37;;;14.70;38.40;;;;;;5076953;28;20401;-70
2023/05/14 08:10:08;;;;;;;17.37;16.13;;;14.50;39.10;;;;;;5059602;28;20424;-71
2023/05/14 08:12:33;;;;;;;17.10;16.00;;;14.30;40.70;;;;;;5075105;28;20693;-71
2023/05/14 08:14:59;;;;;;;16.00;15.10;;;14.30;41.00;;;;;;5075730;28;20444;-71
2023/05/14 08:17:25;;;;;;;16.77;15.77;;;14.20;40.70;;;;;;5076801;28;20176;-71
2023/05/14 08:19:50;;;;;;;16.37;15.17;;;14.20;41.40;;;;;;5075141;28;20190;-71
2023/05/14 08:22:16;;;;;;;17.17;16.17;;;14.30;41.20;;;;;;5076272;28;20222;-71
2023/05/14 08:24:42;;;;;;;16.63;15.63;;;14.50;40.50;;;;;;5077112;28;20199;-71
2023/05/14 08:27:08;;;;;;;15.67;14.70;;;14.50;40.60;;;;;;5075882;28;20550;-72
2023/05/14 08:29:34;;;;;;;15.90;14.93;;;14.50;40.30;;;;;;5076704;28;20509;-71
2023/05/14 08:31:59;;;;;;;16.10;15.10;;;14.60;40.40;;;;;;5058355;28;20416;-71
2023/05/14 08:34:25;;;;;;;15.67;14.77;;;14.70;40.00;;;;;;5075649;28;20448;-71
2023/05/14 08:36:50;;;;;;;16.33;15.33;;;14.80;39.70;;;;;;5076036;28;20171;-72
2023/05/14 08:39:16;;;;;;;16.93;15.83;;;15.00;39.60;;;;;;5077125;28;20679;-72
2023/05/14 08:41:42;;;;;;;15.97;14.97;;;15.10;38.30;;;;;;5058298;28;20198;-69
2023/05/14 08:44:18;;;;;;;17.37;16.37;;;15.20;37.90;;;;;;5077109;28;20236;-71
2023/05/14 08:46:44;;;;;;;17.90;16.70;;;15.30;37.50;;;;;;5074655;28;20892;-71
2023/05/14 08:49:15;;;;;;;15.20;14.30;;;15.40;37.60;;;;;;5075655;28;20414;-70
2023/05/14 08:51:43;;;;;;;19.00;17.70;;;15.60;36.50;;;;;;5057895;28;20420;-71
2023/05/14 08:54:13;;;;;;;17.17;16.07;;;15.60;36.40;;;;;;5075475;28;20434;-72
2023/05/14 08:56:40;;;;;;;16.60;15.60;;;15.70;36.50;;;;;;5075097;28;20424;-71
2023/05/14 08:59:06;;;;;;;17.30;16.30;;;15.70;36.50;;;;;;5057717;28;20500;-71
2023/05/14 09:01:32;;;;;;;16.30;15.30;;;15.70;36.70;;;;;;5074578;28;20908;-72
2023/05/14 09:04:00;;;;;;;16.97;15.97;;;15.70;37.00;;;;;;5074279;28;20627;-71
2023/05/14 09:06:26;;;;;;;17.57;16.53;;;15.70;36.50;;;;;;5075774;28;20523;-72
2023/05/14 09:08:52;;;;;;;18.30;17.20;;;15.70;36.00;;;;;;5075992;28;20408;-71
2023/05/14 09:11:18;;;;;;;17.07;15.97;;;15.80;34.60;;;;;;5075923;28;20405;-71
2023/05/14 09:13:43;;;;;;;17.40;16.23;;;15.80;35.10;;;;;;5075031;28;20790;-72
2023/05/14 09:16:09;;;;;;;18.50;17.30;;;15.90;34.90;;;;;;5069428;28;20270;-72
2023/05/14 09:18:35;;;;;;;20.23;18.90;;;16.00;34.10;;;;;;5073676;28;20183;-70
2023/05/14 09:21:01;;;;;;;18.47;17.17;;;16.00;34.00;;;;;;5073359;28;20179;-70
2023/05/14 09:23:32;;;;;;;17.83;16.73;;;16.10;33.30;;;;;;5072407;28;20955;-70
2023/05/14 09:25:57;;;;;;;16.10;15.10;;;16.20;32.90;;;;;;5073760;28;20694;-70
2023/05/14 09:28:26;;;;;;;18.17;16.90;;;16.20;32.70;;;;;;5073089;28;20408;-71
2023/05/14 09:30:52;;;;;;;17.67;16.37;;;16.30;34.00;;;;;;5073334;28;20168;-70
2023/05/14 09:33:28;;;;;;;18.13;16.83;;;16.30;32.60;;;;;;5073983;28;20480;-70
2023/05/14 09:36:00;;;;;;;18.33;17.13;;;16.40;31.70;;;;;;5072257;28;20190;-71
2023/05/14 09:38:30;;;;;;;17.67;16.47;;;16.30;31.90;;;;;;5072495;28;20410;-72
2023/05/14 09:40:57;;;;;;;18.00;16.80;;;16.20;32.30;;;;;;5074122;28;20406;-71
2023/05/14 09:43:23;;;;;;;18.60;17.50;;;16.30;32.70;;;;;;5054199;28;20441;-70
2023/05/14 09:45:48;;;;;;;15.10;14.20;;;16.30;32.00;;;;;;5073368;28;20468;-70
2023/05/14 09:48:14;;;;;;;15.23;14.33;;;16.40;31.80;;;;;;5055353;28;20175;-77
2023/05/14 09:50:44;;;;;;;16.23;15.20;;;16.40;31.20;;;;;;5071717;28;20659;-72
2023/05/14 09:53:11;;;;;;;15.00;14.10;;;16.50;31.00;;;;;;5069018;28;20448;-73
2023/05/14 09:55:37;;;;;;;14.27;13.47;;;16.60;29.50;;;;;;5072754;28;20445;-73
2023/05/14 09:58:04;;;;;;;15.60;14.70;;;16.70;29.30;;;;;;5070298;28;20473;-70
2023/05/14 10:00:31;;;;;;;14.30;13.33;;;16.80;28.80;;;;;;5068594;28;20441;-72
2023/05/14 10:02:57;;;;;;;14.93;14.03;;;16.70;28.80;;;;;;5069623;28;20453;-71
2023/05/14 10:05:25;;;;;;;15.33;14.43;;;16.80;28.50;;;;;;5072021;28;20880;-71
2023/05/14 10:07:55;;;;;;;15.20;14.30;;;16.80;28.60;;;;;;5071884;28;20413;-71
2023/05/14 10:10:24;;;;;;;15.20;14.20;;;16.80;28.80;;;;;;5071391;28;20452;-70
2023/05/14 10:13:04;;;;;;;15.27;14.37;;;16.80;29.10;;;;;;5063713;28;20440;-72
2023/05/14 10:15:36;;;;;;;14.00;13.20;;;16.80;29.00;;;;;;5072205;28;20513;-73
2023/05/14 10:18:08;;;;;;;13.83;12.90;;;16.80;29.60;;;;;;5066013;28;20405;-72
2023/05/14 10:20:35;;;;;;;15.20;13.97;;;16.70;28.20;;;;;;5073105;28;20911;-72
2023/05/14 10:23:01;;;;;;;14.13;13.27;;;16.70;29.10;;;;;;5071667;28;20440;-74
2023/05/14 10:25:26;;;;;;;14.27;13.37;;;16.70;28.50;;;;;;5072261;28;20979;-72
2023/05/14 10:27:53;;;;;;;13.50;12.70;;;16.70;28.90;;;;;;5055453;28;20194;-71
2023/05/14 10:30:21;;;;;;;13.10;12.30;;;16.70;28.60;;;;;;5071690;28;20529;-71
2023/05/14 10:32:47;;;;;;;14.50;13.50;;;16.70;28.20;;;;;;5071449;28;20977;-73
2023/05/14 10:35:19;;;;;;;13.87;13.07;;;16.70;28.70;;;;;;5068896;28;20421;-71
2023/05/14 10:37:48;;;;;;;15.47;14.40;;;16.70;28.60;;;;;;5068121;28;20645;-72
2023/05/14 10:40:13;;;;;;;14.90;13.90;;;16.70;28.90;;;;;;5050753;28;20520;-75
2023/05/14 10:42:42;;;;;;;14.70;13.60;;;16.80;29.70;;;;;;5069472;28;20518;-71
2023/05/14 10:45:09;;;;;;;14.27;13.37;;;16.80;29.40;;;;;;5068085;28;20207;-71
2023/05/14 10:47:37;;;;;;;14.13;13.30;;;17.00;29.30;;;;;;5071144;28;21030;-72
2023/05/14 10:50:06;;;;;;;12.43;11.63;;;17.00;29.00;;;;;;5070772;28;20452;-72
2023/05/14 10:52:33;;;;;;;13.10;12.40;;;17.00;27.90;;;;;;5072311;28;20462;-71
2023/05/14 10:55:01;;;;;;;13.73;12.90;;;17.10;28.00;;;;;;5072989;28;20575;-70
2023/05/14 10:57:30;;;;;;;12.57;11.80;;;17.20;28.40;;;;;;5072985;28;20427;-71
2023/05/14 10:59:58;;;;;;;15.40;14.30;;;17.20;28.10;;;;;;5071626;28;20805;-71
2023/05/14 11:02:31;;;;;;;12.10;11.50;;;17.20;28.10;;;;;;5072704;28;21095;-71
2023/05/14 11:05:04;;;;;;;13.27;12.47;;;17.20;28.10;;;;;;5073014;28;20421;-73
2023/05/14 11:07:32;;;;;;;14.13;13.27;;;17.20;27.80;;;;;;5054479;28;20441;-70
2023/05/14 11:10:09;;;;;;;12.30;11.50;;;17.20;28.10;;;;;;5070439;28;20405;-73
2023/05/14 11:12:37;;;;;;;12.83;12.03;;;17.20;27.90;;;;;;5070388;28;20413;-72
2023/05/14 11:15:06;;;;;;;12.63;11.93;;;17.20;27.30;;;;;;5069420;28;20405;-73
2023/05/14 11:17:33;;;;;;;12.03;11.13;;;17.20;27.90;;;;;;5070985;28;20463;-71
2023/05/14 11:19:59;;;;;;;11.80;11.00;;;17.20;28.80;;;;;;5071891;28;20406;-74
2023/05/14 11:22:25;;;;;;;12.63;11.63;;;17.20;29.40;;;;;;5069385;28;20414;-71
2023/05/14 11:24:50;;;;;;;12.07;11.00;;;17.20;29.40;;;;;;5054923;28;20188;-72
2023/05/14 11:27:17;;;;;;;13.83;12.67;;;17.20;29.20;;;;;;5073310;28;20485;-72
2023/05/14 11:29:45;;;;;;;12.53;11.73;;;17.20;29.40;;;;;;5073289;28;20179;-71
2023/05/14 11:32:11;;;;;;;12.83;12.00;;;17.10;29.00;;;;;;5071568;28;20425;-71
2023/05/14 11:34:36;;;;;;;12.90;12.10;;;17.10;28.80;;;;;;5055935;28;20430;-71
2023/05/14 11:37:04;;;;;;;13.70;12.90;;;17.20;28.70;;;;;;5056033;28;20439;-71
2023/05/14 11:39:32;;;;;;;12.63;11.93;;;17.30;28.10;;;;;;5055893;28;20183;-72
2023/05/14 11:42:01;;;;;;;12.07;11.37;;;17.40;26.70;;;;;;5076148;28;20409;-71
2023/05/14 11:44:26;;;;;;;12.40;11.70;;;17.30;27.10;;;;;;5077530;28;20482;-72
2023/05/14 11:46:56;;;;;;;12.70;12.00;;;17.30;27.30;;;;;;5076312;28;20461;-71
2023/05/14 11:49:23;;;;;;;12.87;12.03;;;17.40;27.90;;;;;;5076806;28;20186;-71
2023/05/14 11:51:49;;;;;;;11.13;10.43;;;17.50;28.20;;;;;;5076306;28;20409;-72
2023/05/14 11:54:15;;;;;;;13.77;12.87;;;17.40;28.20;;;;;;5077303;28;20915;-71
2023/05/14 11:56:40;;;;;;;10.63;9.83;;;17.40;27.80;;;;;;5077066;28;20425;-71
2023/05/14 11:59:09;;;;;;;12.13;11.43;;;17.40;27.90;;;;;;5076644;28;20651;-72
2023/05/14 12:01:36;;;;;;;12.60;11.90;;;17.40;27.70;;;;;;5076085;28;20201;-73
2023/05/14 12:04:03;;;;;;;12.60;11.90;;;17.40;27.90;;;;;;5076475;28;20441;-71
2023/05/14 12:06:32;;;;;;;11.93;11.23;;;17.40;27.10;;;;;;5076636;28;20461;-72
2023/05/14 12:08:57;;;;;;;13.30;12.20;;;17.40;27.10;;;;;;5076351;28;20856;-74
2023/05/14 12:11:23;;;;;;;12.60;11.90;;;17.50;26.70;;;;;;5075613;28;20456;-72
2023/05/14 12:13:51;;;;;;;13.77;12.97;;;17.60;26.90;;;;;;5058788;28;20302;-71
2023/05/14 12:16:19;;;;;;;11.23;10.43;;;17.70;26.20;;;;;;5076475;28;20958;-72
2023/05/14 12:18:45;;;;;;;11.77;11.07;;;17.60;26.50;;;;;;5076594;28;20413;-71
2023/05/14 12:21:10;;;;;;;11.60;10.80;;;17.60;27.60;;;;;;5076117;28;20414;-73
2023/05/14 12:23:37;;;;;;;11.57;10.77;;;17.70;27.70;;;;;;5076419;28;20202;-70